Time;durP1;ratioP1;P1;durP2;ratioP2;P2;SDS_P1;SDS_P2;PMS_P1;PMS_P2;Temp;Humidity;BMP_temperature;BMP_pressure;BME280_temperature;BME280_humidity;BME280_pressure;Samples;Min_cycle;Max_cycle;Signal;HPM_P1;HPM_P2
2022/05/05 04:00:12;;;;;;;11.30;10.20;;;8.40;96.30;;;;;;6096105;23;20446;31
2022/05/05 04:02:37;;;;;;;10.60;9.60;;;8.40;96.30;;;;;;4912254;29;20460;-75
2022/05/05 04:05:03;;;;;;;11.20;9.93;;;8.50;96.30;;;;;;4910968;29;20499;-75
2022/05/05 04:07:29;;;;;;;12.10;10.27;;;8.60;96.30;;;;;;4915032;29;20222;-73
2022/05/05 04:09:54;;;;;;;13.17;11.97;;;8.60;96.30;;;;;;4915809;29;20259;-73
2022/05/05 04:12:20;;;;;;;14.27;12.97;;;8.70;96.30;;;;;;4947564;29;20199;-73
2022/05/05 04:14:47;;;;;;;14.13;12.70;;;8.80;96.30;;;;;;4934644;29;20176;-74
2022/05/05 04:17:12;;;;;;;12.77;11.57;;;9.00;96.30;;;;;;4934379;29;20412;-73
2022/05/05 04:19:39;;;;;;;11.43;10.30;;;9.10;96.30;;;;;;4933963;29;20478;-73
2022/05/05 04:22:05;;;;;;;11.80;10.60;;;9.20;96.30;;;;;;4935376;29;20196;-72
2022/05/05 04:24:31;;;;;;;13.90;12.50;;;9.20;96.30;;;;;;4938634;29;20951;-72
2022/05/05 04:26:57;;;;;;;15.17;13.20;;;9.20;96.30;;;;;;4934342;29;20342;-72
2022/05/05 04:29:22;;;;;;;13.00;11.70;;;9.20;96.30;;;;;;4932779;29;20176;-72
2022/05/05 04:31:48;;;;;;;12.50;11.33;;;9.20;96.30;;;;;;4933976;29;20195;-72
2022/05/05 04:34:13;;;;;;;12.03;10.80;;;9.10;96.30;;;;;;4933177;29;20284;-72
2022/05/05 04:36:39;;;;;;;10.10;8.93;;;9.20;96.30;;;;;;4936394;29;20179;-73
2022/05/05 04:39:05;;;;;;;11.00;10.00;;;9.20;96.30;;;;;;4937190;29;20227;-72
2022/05/05 04:52:11;;;;;;;15.33;9.90;;;9.30;96.30;;;;;;5305737;23;20504;-72
2022/05/05 04:54:36;;;;;;;14.40;11.40;;;9.40;96.30;;;;;;4940077;29;20921;-72
2022/05/05 04:57:02;;;;;;;13.77;12.40;;;9.50;96.30;;;;;;4957137;29;20418;-72
2022/05/05 04:59:28;;;;;;;12.40;11.20;;;9.50;96.30;;;;;;4955960;29;20195;-73
2022/05/05 05:04:29;;;;;;;12.17;10.30;;;9.60;96.30;;;;;;4966541;28;20218;-72
2022/05/05 05:06:55;;;;;;;12.63;10.87;;;9.60;96.30;;;;;;4956985;29;20458;-73
2022/05/05 05:09:20;;;;;;;14.03;10.67;;;9.60;96.30;;;;;;4979959;28;20556;-73
2022/05/05 05:11:46;;;;;;;11.50;10.30;;;9.60;96.30;;;;;;4974100;28;20438;-72
2022/05/05 05:14:11;;;;;;;12.13;11.13;;;9.60;96.30;;;;;;4967480;28;20384;-75
2022/05/05 05:16:37;;;;;;;11.60;10.60;;;9.60;96.30;;;;;;4969469;28;20182;-73
2022/05/05 05:19:03;;;;;;;14.40;13.10;;;9.70;96.30;;;;;;4980597;28;20192;-72
2022/05/05 07:07:47;;;;;;;27.20;24.40;;;12.70;96.30;;;;;;4950083;23;20490;-72
2022/05/05 07:12:57;;;;;;;27.87;24.03;;;12.60;96.30;;;;;;4934100;29;20410;-73
2022/05/05 07:15:22;;;;;;;24.57;22.03;;;12.60;96.30;;;;;;4934725;29;20427;-72
2022/05/05 07:17:48;;;;;;;27.40;23.37;;;12.50;96.30;;;;;;4935449;29;20659;-72
2022/05/05 07:20:13;;;;;;;24.83;22.00;;;12.70;96.30;;;;;;4932815;29;20184;-72
2022/05/05 07:43:23;;;;;;;19.47;17.40;;;17.50;96.30;;;;;;5727052;23;20882;-73
2022/05/05 07:45:49;;;;;;;18.40;16.57;;;17.20;96.30;;;;;;4934851;29;20415;-73
2022/05/05 07:48:14;;;;;;;18.90;17.00;;;16.30;96.30;;;;;;4963981;28;20429;-74
2022/05/05 08:01:01;;;;;;;15.90;14.27;;;17.80;96.30;;;;;;5459643;23;22270;-73
2022/05/05 08:03:28;;;;;;;16.50;15.00;;;19.10;96.30;;;;;;4972929;28;20429;-73
2022/05/05 08:05:54;;;;;;;16.77;14.97;;;19.40;96.30;;;;;;4973307;28;20171;-75
2022/05/05 08:08:19;;;;;;;18.17;16.40;;;18.70;96.30;;;;;;4976471;28;20475;-73
2022/05/05 08:10:47;;;;;;;17.93;15.77;;;18.10;96.30;;;;;;4975310;28;20265;-72
2022/05/05 08:13:12;;;;;;;22.67;15.17;;;17.20;96.30;;;;;;4977413;28;20300;-72
2022/05/05 08:15:38;;;;;;;19.00;15.17;;;16.50;96.30;;;;;;4977392;28;20504;-72
2022/05/05 08:18:03;;;;;;;18.17;15.97;;;16.40;96.30;;;;;;4977172;28;20544;-72
2022/05/05 08:38:36;;;;;;;14.03;9.97;;;17.20;96.30;;;;;;5197489;23;20490;-75
2022/05/05 08:41:03;;;;;;;9.40;8.53;;;17.90;96.30;;;;;;4938175;29;20439;-72
2022/05/05 08:43:29;;;;;;;9.87;8.87;;;19.10;96.30;;;;;;4938499;29;20539;-73
2022/05/05 08:45:58;;;;;;;13.07;9.20;;;20.50;96.30;;;;;;4938172;29;20408;-73
2022/05/05 08:48:23;;;;;;;8.90;7.70;;;21.40;93.30;;;;;;4920854;29;20442;-73
2022/05/05 08:50:58;;;;;;;9.33;8.10;;;21.80;92.00;;;;;;4938096;29;20424;-72
2022/05/05 08:53:29;;;;;;;9.73;7.73;;;21.30;94.30;;;;;;4938135;29;20171;-72
2022/05/05 08:55:54;;;;;;;8.23;7.50;;;20.40;93.40;;;;;;4938114;29;20767;-72
2022/05/05 08:58:21;;;;;;;7.97;7.17;;;19.80;96.30;;;;;;4937577;29;20430;-72
2022/05/05 09:00:46;;;;;;;9.93;8.63;;;18.80;96.30;;;;;;4907712;29;20212;-72
2022/05/05 09:03:12;;;;;;;10.20;8.03;;;18.50;96.30;;;;;;4900035;29;20412;-73
2022/05/05 09:05:44;;;;;;;8.73;7.93;;;18.10;96.30;;;;;;4900045;29;20196;-75
2022/05/05 09:08:12;;;;;;;7.90;7.10;;;17.30;96.30;;;;;;4882921;29;20212;-72
2022/05/05 09:10:45;;;;;;;9.27;7.90;;;17.00;96.30;;;;;;4899961;29;20445;-72
2022/05/05 09:13:11;;;;;;;8.50;7.10;;;18.10;96.30;;;;;;4899809;29;20466;-72
2022/05/05 09:15:40;;;;;;;8.20;7.37;;;19.90;96.30;;;;;;4899851;29;20413;-72
2022/05/05 09:18:13;;;;;;;7.30;6.60;;;21.00;96.30;;;;;;4899582;29;20469;-74
2022/05/05 09:20:39;;;;;;;11.30;7.10;;;20.90;96.30;;;;;;4899244;29;20464;-73
2022/05/05 09:23:05;;;;;;;9.77;6.10;;;21.10;96.30;;;;;;4899991;29;20477;-72
2022/05/05 09:25:49;;;;;;;10.63;7.30;;;20.40;94.20;;;;;;4899700;29;20421;-73
2022/05/05 09:28:19;;;;;;;10.47;6.33;;;20.60;96.30;;;;;;4899463;29;20177;-73
2022/05/05 09:30:55;;;;;;;8.43;6.67;;;21.30;93.50;;;;;;4899610;29;20950;-73
2022/05/05 09:33:40;;;;;;;8.13;6.43;;;21.50;89.30;;;;;;4899710;29;20775;-75
2022/05/05 09:36:14;;;;;;;5.67;5.17;;;20.30;93.00;;;;;;4899543;29;20413;-72
2022/05/05 09:38:51;;;;;;;9.20;5.67;;;20.30;94.00;;;;;;4882561;29;20799;-72
2022/05/05 09:41:18;;;;;;;8.67;6.40;;;21.10;95.50;;;;;;4913194;29;20479;-75
2022/05/05 09:43:44;;;;;;;8.87;6.03;;;20.60;95.80;;;;;;4912490;29;20556;-73
2022/05/05 09:46:30;;;;;;;10.37;6.50;;;19.70;96.30;;;;;;4899653;29;20491;-72
2022/05/05 09:49:04;;;;;;;8.40;6.47;;;18.60;96.30;;;;;;4900272;29;20518;-73
2022/05/05 09:51:30;;;;;;;8.30;5.97;;;18.50;96.30;;;;;;4907455;29;20441;-73
2022/05/05 09:57:40;;;;;;;7.40;6.60;;;18.20;96.30;;;;;;4899068;29;20188;-74
2022/05/05 09:59:40;;;;;;;9.47;6.90;;;18.00;96.30;;;;;;4898707;29;20418;-72
2022/05/05 10:02:15;;;;;;;8.60;6.27;;;17.80;96.30;;;;;;4898903;29;20429;-75
2022/05/05 10:04:47;;;;;;;7.07;6.37;;;17.90;96.30;;;;;;4888943;29;20436;-72
2022/05/05 10:07:13;;;;;;;7.43;6.70;;;17.90;96.30;;;;;;4910960;29;20482;-73
2022/05/05 10:09:40;;;;;;;7.63;6.83;;;17.70;96.30;;;;;;4901731;29;20420;-73
2022/05/05 10:12:06;;;;;;;9.57;7.13;;;17.90;96.30;;;;;;4898752;29;20535;-75
2022/05/05 10:14:32;;;;;;;16.37;7.87;;;18.20;96.30;;;;;;4899018;29;20501;-74
2022/05/05 10:16:59;;;;;;;10.87;7.90;;;18.10;96.30;;;;;;4898852;29;20496;-72
2022/05/05 10:19:24;;;;;;;10.50;6.53;;;18.70;96.30;;;;;;4907886;29;20235;-73
2022/05/05 10:22:17;;;;;;;7.13;5.40;;;18.50;96.30;;;;;;4917844;29;20436;-72
2022/05/05 10:25:00;;;;;;;5.80;5.20;;;18.30;96.30;;;;;;4918559;29;20160;-73
2022/05/05 10:27:26;;;;;;;6.77;5.90;;;18.00;96.30;;;;;;4914926;29;20538;-74
2022/05/05 10:29:51;;;;;;;8.87;5.17;;;17.60;96.30;;;;;;4915256;29;20532;-73
2022/05/05 10:32:25;;;;;;;6.03;5.47;;;18.00;96.30;;;;;;4915936;29;20227;-74
2022/05/05 10:35:06;;;;;;;12.43;6.10;;;18.60;96.30;;;;;;4916083;29;20267;-74
2022/05/05 10:37:37;;;;;;;7.13;5.37;;;19.00;96.30;;;;;;4916517;29;20522;-73
2022/05/05 10:40:07;;;;;;;9.03;6.27;;;19.20;96.30;;;;;;4916749;29;20984;-73
2022/05/05 10:42:45;;;;;;;9.83;5.90;;;19.20;96.30;;;;;;4912104;29;20437;-74
2022/05/05 10:45:12;;;;;;;7.20;4.93;;;19.30;96.30;;;;;;4906901;29;20436;-73
2022/05/05 10:47:49;;;;;;;6.33;5.30;;;19.20;96.30;;;;;;4906753;29;20461;-74
2022/05/05 10:50:38;;;;;;;6.00;5.40;;;18.90;96.30;;;;;;4900901;29;20965;-74
2022/05/05 10:53:06;;;;;;;5.20;4.70;;;18.30;96.30;;;;;;4901081;29;20414;-74
2022/05/05 10:55:43;;;;;;;7.50;5.33;;;19.20;96.30;;;;;;4913945;29;20416;-74
2022/05/05 10:58:10;;;;;;;5.60;5.10;;;19.70;96.30;;;;;;4915914;29;20423;-73
2022/05/05 11:00:40;;;;;;;10.03;5.43;;;19.60;96.30;;;;;;4916717;29;20436;-73
2022/05/05 11:03:09;;;;;;;7.67;4.80;;;19.40;96.30;;;;;;4917035;29;20944;-74
2022/05/05 11:05:36;;;;;;;6.20;5.50;;;18.90;96.30;;;;;;4917154;29;20408;-73
2022/05/05 11:08:08;;;;;;;8.67;6.13;;;19.10;96.30;;;;;;4916536;29;20989;-75
2022/05/05 11:10:45;;;;;;;7.40;5.27;;;18.60;96.30;;;;;;4916443;29;20471;-73
2022/05/05 11:13:39;;;;;;;6.53;5.50;;;18.60;96.30;;;;;;4916454;29;20416;-73
2022/05/05 11:22:11;;;;;;;9.00;5.60;;;18.90;96.30;;;;;;4918526;29;20419;-75
2022/05/05 11:24:41;;;;;;;7.40;5.57;;;19.40;96.30;;;;;;4917751;29;20909;-75
2022/05/05 11:27:11;;;;;;;5.73;5.10;;;19.50;96.30;;;;;;4917562;29;20487;-76
2022/05/05 11:29:37;;;;;;;7.97;5.70;;;19.10;96.30;;;;;;4917676;29;20415;-76
2022/05/05 11:32:06;;;;;;;6.87;5.77;;;19.50;96.30;;;;;;4917018;29;20516;-75
2022/05/05 11:34:34;;;;;;;11.00;5.40;;;18.70;95.70;;;;;;4916694;29;20172;-76
2022/05/05 11:37:00;;;;;;;6.10;5.50;;;17.80;96.30;;;;;;4916818;29;20416;-76
2022/05/05 11:39:27;;;;;;;7.00;5.40;;;17.50;96.30;;;;;;4916709;29;20897;-76
2022/05/05 11:42:11;;;;;;;10.63;5.73;;;17.80;96.30;;;;;;4899781;29;20437;-76
2022/05/05 11:44:43;;;;;;;8.67;5.67;;;18.60;96.30;;;;;;4899225;29;20844;-75
2022/05/05 11:47:19;;;;;;;6.83;5.27;;;18.90;94.00;;;;;;4899261;29;20484;-76
2022/05/05 11:49:51;;;;;;;8.37;6.00;;;19.80;94.10;;;;;;4917476;29;20415;-74
2022/05/05 11:52:21;;;;;;;7.17;5.27;;;19.50;93.00;;;;;;4917308;29;20434;-76
2022/05/05 11:54:57;;;;;;;6.67;5.60;;;19.70;94.80;;;;;;4917438;29;20420;-77
2022/05/05 11:57:38;;;;;;;8.57;6.17;;;20.20;95.00;;;;;;4917158;29;20432;-76
2022/05/05 12:03:04;;;;;;;5.70;4.73;;;21.00;94.60;;;;;;4881956;29;20430;-76
2022/05/05 12:05:30;;;;;;;5.13;4.63;;;20.80;96.20;;;;;;4917053;29;20460;-77
2022/05/05 12:07:56;;;;;;;6.60;4.83;;;21.30;95.80;;;;;;4915731;29;20471;-75
2022/05/05 12:10:32;;;;;;;8.13;5.33;;;21.40;90.60;;;;;;4889314;29;20985;-76
2022/05/05 12:13:01;;;;;;;8.10;5.10;;;20.70;89.80;;;;;;4913089;29;20834;-76
2022/05/05 12:15:27;;;;;;;7.10;4.73;;;20.30;94.40;;;;;;4933398;29;20431;-76
2022/05/05 12:17:57;;;;;;;6.70;5.47;;;21.40;95.00;;;;;;4935254;29;20430;-76
2022/05/05 12:20:23;;;;;;;7.50;5.67;;;21.70;93.90;;;;;;4936119;29;20415;-77
2022/05/05 12:23:00;;;;;;;7.90;5.97;;;21.10;95.30;;;;;;4935907;29;20423;-77
2022/05/05 12:25:26;;;;;;;10.20;6.43;;;20.40;94.20;;;;;;4935744;29;20231;-77
2022/05/05 12:27:58;;;;;;;9.00;5.73;;;20.20;94.50;;;;;;4935362;29;20471;-76
2022/05/05 12:30:34;;;;;;;8.33;7.17;;;19.80;95.50;;;;;;4924514;29;20420;-76
2022/05/05 12:33:00;;;;;;;12.00;7.57;;;19.90;96.30;;;;;;4916804;29;20766;-77
2022/05/05 12:35:33;;;;;;;10.30;6.63;;;19.90;96.30;;;;;;4916984;29;20416;-76
2022/05/05 12:38:00;;;;;;;9.37;7.73;;;19.20;96.30;;;;;;4916587;29;20435;-76
2022/05/05 12:40:26;;;;;;;8.40;6.90;;;18.60;96.30;;;;;;4916940;29;20419;-76
2022/05/05 12:43:02;;;;;;;11.10;7.80;;;18.40;96.30;;;;;;4916914;29;20425;-77
2022/05/05 12:45:31;;;;;;;9.97;7.37;;;18.10;96.30;;;;;;4900035;29;20540;-75
2022/05/05 12:48:00;;;;;;;10.40;8.97;;;17.70;96.30;;;;;;4916933;29;20864;-76
2022/05/05 12:50:34;;;;;;;11.00;8.47;;;17.40;96.30;;;;;;4917144;29;20423;-76
2022/05/05 13:01:37;;;;;;;10.00;8.07;;;18.70;96.30;;;;;;4919607;29;20431;-76
2022/05/05 13:04:06;;;;;;;9.77;7.23;;;18.40;96.30;;;;;;4921153;29;20920;-77
2022/05/05 13:06:32;;;;;;;11.10;8.00;;;18.30;96.30;;;;;;4919653;29;20474;-76
2022/05/05 13:08:58;;;;;;;11.03;8.00;;;17.90;96.30;;;;;;4904325;29;20798;-75
2022/05/05 13:11:25;;;;;;;12.60;7.73;;;17.70;96.30;;;;;;4919770;29;20435;-75
2022/05/05 13:13:51;;;;;;;11.37;8.83;;;17.60;96.30;;;;;;4919541;29;20843;-74
2022/05/05 13:16:17;;;;;;;8.57;6.67;;;17.50;96.30;;;;;;4919744;29;20923;-76
2022/05/05 13:18:43;;;;;;;9.20;8.17;;;17.60;96.30;;;;;;4902043;29;20424;-75
2022/05/05 13:21:09;;;;;;;9.73;8.60;;;18.00;96.30;;;;;;4920124;29;20200;-75
2022/05/05 13:23:35;;;;;;;10.43;7.90;;;17.90;96.30;;;;;;4903094;29;20428;-75
2022/05/05 13:26:01;;;;;;;12.80;8.90;;;18.00;96.30;;;;;;4920496;29;20263;-75
2022/05/05 13:28:26;;;;;;;12.43;8.40;;;17.80;96.30;;;;;;4919484;29;20172;-74
2022/05/05 13:30:52;;;;;;;12.43;7.63;;;17.60;96.30;;;;;;4918670;29;20207;-74
2022/05/05 13:33:17;;;;;;;14.00;8.63;;;17.20;96.30;;;;;;4910845;29;20554;-73
2022/05/05 13:35:43;;;;;;;8.90;7.57;;;17.10;96.30;;;;;;4899475;29;20177;-74
2022/05/05 13:38:08;;;;;;;11.90;8.60;;;17.20;96.30;;;;;;4898584;29;20196;-72
2022/05/05 13:40:34;;;;;;;9.63;8.73;;;17.20;96.30;;;;;;4904060;29;20568;-73
2022/05/05 13:43:00;;;;;;;9.93;8.83;;;17.20;96.30;;;;;;4917875;29;20192;-73
2022/05/05 13:45:26;;;;;;;12.63;9.07;;;17.40;96.30;;;;;;4917890;29;20180;-73
2022/05/05 13:47:52;;;;;;;11.20;8.17;;;17.50;96.30;;;;;;4913585;29;20208;-73
2022/05/05 13:50:17;;;;;;;10.10;9.10;;;17.60;96.30;;;;;;4917812;29;20780;-73
2022/05/05 13:52:44;;;;;;;10.93;9.03;;;17.80;96.30;;;;;;4917757;29;20223;-75
2022/05/05 13:55:10;;;;;;;15.53;9.03;;;17.80;96.30;;;;;;4917569;29;20172;-74
2022/05/05 13:57:37;;;;;;;10.93;9.23;;;17.70;96.30;;;;;;4917611;29;20432;-74
2022/05/05 14:00:04;;;;;;;11.70;8.60;;;17.50;96.30;;;;;;4917252;29;20435;-74
2022/05/05 14:02:30;;;;;;;13.77;9.03;;;17.50;96.30;;;;;;4908611;29;20508;-74
2022/05/05 14:04:55;;;;;;;13.17;10.27;;;17.70;96.30;;;;;;4903800;29;20444;-74
2022/05/05 14:12:10;;;;;;;12.20;9.67;;;17.80;96.30;;;;;;4916252;29;20215;-66
2022/05/05 14:12:51;;;;;;;16.93;9.90;;;17.50;96.30;;;;;;4917662;29;20475;-66
2022/05/05 14:15:16;;;;;;;20.53;10.93;;;17.30;96.30;;;;;;4917504;29;20420;-66
2022/05/05 14:17:42;;;;;;;13.13;9.90;;;17.30;96.30;;;;;;4907357;29;20223;-67
2022/05/05 14:20:08;;;;;;;12.00;9.90;;;17.40;96.30;;;;;;4917494;29;20180;-66
2022/05/05 14:22:33;;;;;;;14.47;11.73;;;17.30;96.30;;;;;;4917214;29;20570;-66
2022/05/05 14:24:59;;;;;;;13.40;10.57;;;17.50;96.30;;;;;;4911504;29;20196;-66
2022/05/05 14:27:24;;;;;;;14.93;11.30;;;17.60;96.30;;;;;;4908402;29;20208;-66
2022/05/05 14:29:50;;;;;;;11.50;10.43;;;17.80;96.30;;;;;;4917221;29;20652;-66
2022/05/05 14:32:15;;;;;;;16.47;11.50;;;18.00;96.30;;;;;;4900383;29;20279;-66
2022/05/05 14:34:41;;;;;;;11.70;10.30;;;17.90;96.30;;;;;;4914879;29;20636;-78
2022/05/05 14:37:09;;;;;;;18.03;10.97;;;18.40;96.30;;;;;;4881705;29;20177;-78
2022/05/05 14:39:34;;;;;;;12.73;10.03;;;18.70;96.30;;;;;;4900683;29;20173;-82
2022/05/05 14:41:59;;;;;;;11.10;9.80;;;18.30;96.30;;;;;;4906696;29;20440;-78
2022/05/05 14:44:26;;;;;;;12.50;10.40;;;18.20;96.30;;;;;;4917930;29;20555;-78
2022/05/05 14:46:52;;;;;;;13.53;10.97;;;17.70;96.30;;;;;;4900145;29;20200;-78
2022/05/05 14:49:17;;;;;;;17.10;10.93;;;17.60;96.30;;;;;;4899685;29;20427;-78
2022/05/05 14:51:43;;;;;;;11.57;10.37;;;17.80;96.30;;;;;;4916055;29;20277;-78
2022/05/05 14:54:08;;;;;;;17.70;11.10;;;17.60;96.30;;;;;;4916643;29;20259;-77
2022/05/05 14:56:34;;;;;;;12.60;11.43;;;17.30;96.30;;;;;;4916724;29;20248;-78
2022/05/05 14:59:00;;;;;;;16.57;12.83;;;17.00;96.30;;;;;;4916601;29;20533;-76
2022/05/05 15:01:26;;;;;;;15.73;11.30;;;17.00;96.30;;;;;;4916560;29;20212;-77
2022/05/05 15:03:51;;;;;;;14.17;11.97;;;17.10;96.30;;;;;;4916672;29;20424;-77
2022/05/05 15:06:18;;;;;;;20.50;12.90;;;17.10;96.30;;;;;;4915244;29;20184;-78
2022/05/05 15:08:44;;;;;;;13.47;11.10;;;16.90;96.30;;;;;;4916359;29;20176;-78
2022/05/05 15:11:09;;;;;;;14.77;11.77;;;16.70;96.30;;;;;;4916575;29;20440;-77
2022/05/05 15:13:35;;;;;;;18.60;12.17;;;16.50;96.30;;;;;;4915821;29;20176;-78
2022/05/05 15:16:00;;;;;;;12.67;10.70;;;16.40;96.30;;;;;;4916243;29;20180;-77
2022/05/05 15:18:26;;;;;;;14.80;9.83;;;16.20;96.30;;;;;;4916098;29;20184;-77
2022/05/05 15:20:52;;;;;;;12.17;9.73;;;16.10;96.30;;;;;;4915496;29;20208;-77
2022/05/05 15:23:17;;;;;;;10.83;9.47;;;16.20;96.30;;;;;;4917012;29;20187;-77
2022/05/05 15:25:42;;;;;;;14.10;10.30;;;16.20;96.30;;;;;;4916901;29;20181;-77
2022/05/05 15:28:08;;;;;;;10.47;8.93;;;16.30;96.30;;;;;;4899936;29;20208;-77
2022/05/05 15:30:33;;;;;;;11.30;8.97;;;16.40;96.30;;;;;;4908450;29;20199;-75
2022/05/05 15:32:59;;;;;;;11.37;9.70;;;16.40;96.30;;;;;;4915463;29;20259;-78
2022/05/05 15:35:26;;;;;;;12.97;10.43;;;16.60;96.30;;;;;;4913374;29;20556;-78
2022/05/05 15:37:51;;;;;;;17.80;9.20;;;17.00;96.30;;;;;;4910207;29;20255;-78
2022/05/05 15:40:18;;;;;;;11.83;8.50;;;17.30;96.30;;;;;;4908927;29;20488;-77
2022/05/05 15:42:43;;;;;;;12.40;8.97;;;17.40;96.30;;;;;;4915998;29;20653;-78
2022/05/05 15:45:10;;;;;;;13.33;8.80;;;17.20;96.30;;;;;;4916354;29;20495;-77
2022/05/05 15:47:38;;;;;;;11.57;9.03;;;17.00;96.30;;;;;;4915854;29;20672;-78
2022/05/05 15:50:05;;;;;;;10.17;8.57;;;17.10;96.30;;;;;;4916047;29;20551;-78
2022/05/05 15:52:37;;;;;;;15.23;8.47;;;17.20;96.30;;;;;;4914384;29;20491;-77
2022/05/05 15:55:04;;;;;;;11.10;10.00;;;17.30;96.30;;;;;;4911840;29;20419;-79
2022/05/05 15:57:30;;;;;;;10.70;8.93;;;17.10;96.30;;;;;;4892985;29;20838;-78
2022/05/05 15:59:55;;;;;;;11.87;8.93;;;16.90;96.30;;;;;;4913035;29;20512;-78
2022/05/05 16:02:22;;;;;;;13.33;9.00;;;17.10;96.30;;;;;;4908201;29;20244;-78
2022/05/05 16:04:48;;;;;;;12.10;8.87;;;17.20;96.30;;;;;;4913356;29;20200;-77
2022/05/05 16:07:14;;;;;;;12.37;8.37;;;17.50;96.30;;;;;;4893081;29;20485;-77
2022/05/05 16:09:40;;;;;;;10.43;7.93;;;17.30;96.30;;;;;;4915670;29;20409;-77
2022/05/05 16:12:06;;;;;;;12.30;8.57;;;17.20;96.30;;;;;;4907860;29;20440;-78
2022/05/05 16:14:32;;;;;;;24.50;10.07;;;17.10;96.30;;;;;;4912411;29;20169;-78
2022/05/05 16:16:58;;;;;;;11.30;8.43;;;16.90;96.30;;;;;;4910665;29;20564;-77
2022/05/05 16:19:24;;;;;;;11.37;8.33;;;16.70;96.30;;;;;;4907100;29;20424;-77
2022/05/05 16:21:49;;;;;;;18.53;9.80;;;16.50;96.30;;;;;;4908468;29;20444;-78
2022/05/05 16:24:15;;;;;;;12.30;8.87;;;16.40;96.30;;;;;;4888935;29;20184;-79
2022/05/05 16:32:09;;;;;;;12.53;8.70;;;15.80;96.30;;;;;;4919194;29;20504;-77
2022/05/05 16:34:35;;;;;;;13.83;8.97;;;15.70;96.30;;;;;;4904028;29;20464;-78
2022/05/05 16:37:00;;;;;;;10.90;8.97;;;15.80;96.30;;;;;;4918730;29;20463;-79
2022/05/05 16:39:26;;;;;;;11.77;8.57;;;15.90;96.30;;;;;;4902002;29;20622;-79
2022/05/05 16:41:52;;;;;;;11.20;9.57;;;16.10;96.30;;;;;;4904509;29;20228;-78
2022/05/05 16:44:20;;;;;;;14.03;9.67;;;16.10;96.30;;;;;;4902611;29;20562;-78
2022/05/05 16:46:46;;;;;;;11.93;8.23;;;16.10;96.30;;;;;;4900522;29;20519;-77
2022/05/05 16:49:17;;;;;;;10.60;8.13;;;16.10;96.30;;;;;;4921932;29;20416;-77
2022/05/05 16:51:53;;;;;;;15.07;9.70;;;16.00;96.30;;;;;;4912538;29;20192;-77
2022/05/05 16:54:19;;;;;;;11.33;8.33;;;16.00;96.30;;;;;;4901684;29;20401;-77
2022/05/05 16:56:45;;;;;;;13.13;8.17;;;16.10;96.30;;;;;;4901828;29;20905;-77
2022/05/05 16:59:11;;;;;;;14.80;10.10;;;16.00;96.30;;;;;;4901733;29;20432;-77
2022/05/05 17:01:38;;;;;;;12.80;7.67;;;15.80;96.30;;;;;;4885477;29;20252;-76
2022/05/05 17:04:04;;;;;;;22.83;9.00;;;15.70;96.30;;;;;;4884119;29;20439;-77
2022/05/05 17:06:29;;;;;;;15.63;9.93;;;15.40;96.30;;;;;;4901236;29;20463;-77
2022/05/05 17:08:55;;;;;;;14.70;8.53;;;15.30;96.30;;;;;;4883604;29;20429;-77
2022/05/05 17:11:20;;;;;;;15.93;8.70;;;15.20;96.30;;;;;;4900260;29;20275;-77
2022/05/05 17:13:46;;;;;;;9.77;7.43;;;15.10;96.30;;;;;;4900246;29;20268;-77
2022/05/05 17:16:12;;;;;;;11.70;8.87;;;15.00;96.30;;;;;;4907522;29;20188;-77
2022/05/05 17:18:37;;;;;;;10.97;8.20;;;15.00;96.30;;;;;;4917886;29;20168;-77
2022/05/05 17:21:03;;;;;;;9.03;8.10;;;15.00;96.30;;;;;;4918392;29;20203;-78
2022/05/05 17:23:28;;;;;;;12.53;8.70;;;14.90;96.30;;;;;;4912843;29;20275;-77
2022/05/05 17:25:54;;;;;;;12.20;8.00;;;14.90;96.30;;;;;;4902147;29;20173;-78
2022/05/05 17:28:20;;;;;;;9.00;7.70;;;14.80;96.30;;;;;;4918220;29;20263;-79
2022/05/05 17:30:45;;;;;;;11.00;7.70;;;14.70;96.30;;;;;;4918659;29;20252;-78
2022/05/05 17:33:10;;;;;;;12.73;8.10;;;14.60;96.30;;;;;;4918798;29;20187;-77
2022/05/05 17:35:36;;;;;;;11.37;7.20;;;14.50;96.30;;;;;;4918513;29;20196;-78
2022/05/05 17:38:02;;;;;;;11.60;8.23;;;14.50;96.30;;;;;;4918055;29;20589;-78
2022/05/05 17:40:27;;;;;;;10.90;7.70;;;14.40;96.30;;;;;;4918667;29;20181;-79
2022/05/05 17:42:53;;;;;;;16.33;7.07;;;14.20;96.30;;;;;;4918156;29;20187;-77
2022/05/05 17:50:46;;;;;;;9.70;6.90;;;13.90;96.30;;;;;;4914156;29;20491;-79
2022/05/05 17:53:12;;;;;;;10.23;7.00;;;13.70;96.30;;;;;;4919016;29;20412;-79
2022/05/05 17:55:37;;;;;;;14.40;6.17;;;13.60;96.30;;;;;;4901701;29;20181;-79
2022/05/05 17:58:04;;;;;;;9.83;7.00;;;13.40;96.30;;;;;;4918913;29;20684;-79
2022/05/05 18:00:31;;;;;;;8.23;6.40;;;13.30;96.30;;;;;;4901625;29;20671;-79
2022/05/05 18:02:57;;;;;;;7.53;6.53;;;13.20;96.30;;;;;;4901775;29;20435;-79
2022/05/05 18:05:23;;;;;;;11.07;5.90;;;13.10;96.30;;;;;;4911021;29;20785;-79
2022/05/05 18:07:48;;;;;;;17.83;5.90;;;13.00;96.30;;;;;;4889460;29;20571;-80
2022/05/05 18:10:14;;;;;;;8.87;5.90;;;12.80;96.30;;;;;;4886154;29;20268;-79
2022/05/05 18:12:41;;;;;;;7.90;6.23;;;12.70;96.30;;;;;;4893500;29;20184;-78
2022/05/05 18:15:07;;;;;;;9.93;6.13;;;12.50;96.30;;;;;;4917865;29;20416;-78
2022/05/05 18:17:33;;;;;;;6.93;5.63;;;12.40;96.30;;;;;;4917953;29;20424;-80
2022/05/05 18:20:00;;;;;;;6.17;5.03;;;12.20;96.30;;;;;;4918583;29;20436;-80
2022/05/05 18:22:29;;;;;;;9.30;5.07;;;11.90;96.30;;;;;;4918361;29;20909;-79
2022/05/05 18:24:55;;;;;;;7.77;4.50;;;11.60;96.30;;;;;;4918282;29;20427;-78
2022/05/05 18:27:21;;;;;;;10.37;5.00;;;11.50;96.30;;;;;;4919632;29;20547;-80
2022/05/05 18:29:46;;;;;;;9.97;4.50;;;11.30;96.30;;;;;;4904096;29;20467;-79
2022/05/05 18:32:12;;;;;;;7.97;4.67;;;11.30;96.30;;;;;;4905703;29;20338;-81
2022/05/05 18:34:38;;;;;;;7.43;3.90;;;11.20;96.30;;;;;;4901303;29;20187;-80
2022/05/05 18:37:04;;;;;;;9.80;4.30;;;11.00;96.30;;;;;;4917940;29;20183;-81
2022/05/05 18:39:29;;;;;;;7.07;4.00;;;11.10;96.30;;;;;;4918039;29;20446;-81
2022/05/05 18:41:55;;;;;;;4.23;3.50;;;11.20;96.30;;;;;;4901204;29;20629;-81
2022/05/05 18:44:20;;;;;;;7.10;3.57;;;11.20;96.30;;;;;;4900933;29;20226;-81
2022/05/05 18:46:46;;;;;;;4.50;3.93;;;11.10;96.30;;;;;;4900794;29;20343;-81
2022/05/05 18:49:12;;;;;;;11.33;3.30;;;11.00;96.30;;;;;;4917793;29;20222;-80
2022/05/05 18:51:42;;;;;;;7.13;3.47;;;10.90;96.30;;;;;;4918004;29;20192;-81
2022/05/05 18:54:09;;;;;;;13.50;3.40;;;10.80;96.30;;;;;;4900167;29;20183;-80
2022/05/05 18:56:34;;;;;;;6.47;2.80;;;10.70;96.30;;;;;;4901905;29;20417;-80
2022/05/05 18:59:00;;;;;;;4.40;2.97;;;10.70;96.30;;;;;;4918755;29;20416;-80
2022/05/05 19:01:26;;;;;;;3.27;2.70;;;10.60;96.30;;;;;;4917545;29;20199;-79
2022/05/05 19:03:54;;;;;;;9.33;2.40;;;10.50;96.30;;;;;;4917262;29;20181;-80
2022/05/05 19:06:20;;;;;;;15.83;3.03;;;10.40;96.30;;;;;;4900242;29;20432;-80
2022/05/05 19:08:45;;;;;;;8.20;2.63;;;10.20;96.30;;;;;;4899951;29;20416;-80
2022/05/05 19:11:11;;;;;;;4.27;2.67;;;10.10;96.30;;;;;;4900024;29;20723;-80
2022/05/05 19:13:36;;;;;;;3.80;2.30;;;9.90;96.30;;;;;;4917031;29;20672;-79
2022/05/05 19:16:02;;;;;;;16.33;2.70;;;9.80;96.30;;;;;;4917024;29;20172;-80
2022/05/05 19:18:27;;;;;;;6.53;2.93;;;9.70;96.30;;;;;;4904380;29;20680;-80
2022/05/05 19:20:53;;;;;;;4.00;2.20;;;9.60;96.30;;;;;;4881178;29;20193;-80
2022/05/05 19:23:18;;;;;;;4.07;2.27;;;9.50;96.30;;;;;;4898211;29;20177;-80
2022/05/05 19:25:44;;;;;;;6.13;2.47;;;9.50;96.30;;;;;;4897987;29;20184;-80
2022/05/05 19:28:10;;;;;;;4.70;2.30;;;9.40;96.30;;;;;;4897793;29;20635;-80
2022/05/05 19:30:36;;;;;;;4.93;2.47;;;9.30;96.30;;;;;;4881161;29;20200;-80
2022/05/05 19:33:02;;;;;;;5.80;2.63;;;9.30;96.30;;;;;;4881162;29;20764;-80
2022/05/05 19:35:31;;;;;;;5.43;2.73;;;9.20;96.30;;;;;;4881205;29;20544;-80
2022/05/05 19:37:57;;;;;;;2.83;2.30;;;9.10;96.30;;;;;;4880682;29;20956;-80
2022/05/05 19:40:22;;;;;;;6.13;2.33;;;9.10;96.30;;;;;;4898201;29;20429;-78
2022/05/05 19:42:48;;;;;;;5.30;2.80;;;9.00;96.30;;;;;;4898374;29;20203;-80
2022/05/05 19:45:13;;;;;;;3.37;2.53;;;8.90;96.30;;;;;;4880686;29;20212;-78
2022/05/05 19:47:39;;;;;;;3.80;2.77;;;8.90;96.30;;;;;;4880316;29;20209;-79
2022/05/05 19:50:06;;;;;;;3.17;2.43;;;8.80;96.30;;;;;;4880487;29;20181;-79
2022/05/05 19:52:33;;;;;;;3.50;2.47;;;8.80;96.30;;;;;;4897583;29;20443;-80
2022/05/05 19:54:59;;;;;;;5.60;3.20;;;8.60;96.30;;;;;;4897722;29;20913;-79
2022/05/05 20:02:53;;;;;;;3.40;2.70;;;8.50;96.30;;;;;;4903951;29;20404;-79
2022/05/05 20:08:03;;;;;;;6.63;2.77;;;8.40;96.30;;;;;;4900757;29;20215;-79
2022/05/05 20:10:28;;;;;;;3.53;2.23;;;8.30;96.30;;;;;;4897450;29;20413;-80
2022/05/05 20:12:57;;;;;;;6.90;2.20;;;8.30;96.30;;;;;;4880437;29;20183;-79
2022/05/05 20:15:22;;;;;;;4.67;2.40;;;8.40;96.30;;;;;;4880241;29;20177;-80